Time;durP1;ratioP1;P1;durP2;ratioP2;P2;SDS_P1;SDS_P2;PMS_P1;PMS_P2;Temp;Humidity;BMP_temperature;BMP_pressure;BME280_temperature;BME280_humidity;BME280_pressure;Samples;Min_cycle;Max_cycle;Signal;HPM_P1;HPM_P2
2021/05/07 00:02:12;;;;;;;6.47;3.07;;;;;;;17.66;60.77;100841.72;4983934;28;20054;-67
2021/05/07 00:04:39;;;;;;;7.30;2.90;;;;;;;17.64;60.47;100832.75;4978682;28;20058;-68
2021/05/07 00:07:05;;;;;;;4.60;2.80;;;;;;;17.44;60.66;100802.19;4980836;28;20055;-70
2021/05/07 00:09:32;;;;;;;8.40;3.42;;;;;;;17.53;60.48;100831.31;4980830;28;20131;-69
2021/05/07 00:11:58;;;;;;;5.28;3.03;;;;;;;17.56;60.94;100832.66;4983211;28;20054;-75
2021/05/07 00:14:25;;;;;;;4.47;2.50;;;;;;;17.51;61.02;100828.00;4978614;28;20050;-67
2021/05/07 00:16:53;;;;;;;5.65;2.53;;;;;;;17.46;60.98;100822.47;4977821;28;20275;-67
2021/05/07 00:19:21;;;;;;;7.93;2.90;;;;;;;17.42;61.22;100827.91;4974481;28;20133;-68
2021/05/07 00:21:47;;;;;;;11.20;2.57;;;;;;;17.37;61.23;100824.41;4975356;28;20495;-67
2021/05/07 00:24:14;;;;;;;5.05;2.42;;;;;;;17.32;61.54;100830.16;4978094;28;20046;-67
2021/05/07 00:26:40;;;;;;;4.87;2.13;;;;;;;17.23;61.74;100819.63;4981556;28;20384;-66
2021/05/07 00:29:07;;;;;;;6.03;2.53;;;;;;;17.05;62.07;100809.34;4985486;28;20045;-68
2021/05/07 00:31:33;;;;;;;5.40;2.40;;;;;;;17.09;62.28;100824.47;4980629;28;20487;-66
2021/05/07 00:34:00;;;;;;;8.30;2.33;;;;;;;17.10;62.00;100823.34;4981140;28;20042;-66
2021/05/07 00:36:26;;;;;;;6.53;2.90;;;;;;;16.96;62.36;100799.97;4975594;28;20078;-67
2021/05/07 00:38:52;;;;;;;6.07;3.03;;;;;;;17.07;62.05;100815.50;4978297;28;20060;-67
2021/05/07 00:41:19;;;;;;;3.67;2.30;;;;;;;17.01;62.09;100814.78;4977663;28;20058;-67
2021/05/07 00:43:45;;;;;;;4.87;3.17;;;;;;;16.99;61.98;100810.59;4980003;28;20043;-65
2021/05/07 00:46:12;;;;;;;6.97;3.20;;;;;;;16.87;62.37;100787.75;4976558;28;20058;-67
2021/05/07 00:48:39;;;;;;;5.47;3.17;;;;;;;16.87;62.71;100790.59;4978037;28;20496;-71
2021/05/07 00:51:05;;;;;;;5.07;2.57;;;;;;;16.87;62.71;100794.25;4975656;28;20049;-71
2021/05/07 00:53:32;;;;;;;7.87;2.57;;;;;;;16.85;62.49;100806.97;4977630;28;20472;-70
2021/05/07 00:55:58;;;;;;;4.00;2.13;;;;;;;16.70;63.02;100779.94;4971928;28;20089;-63
2021/05/07 00:58:25;;;;;;;8.17;2.83;;;;;;;16.81;62.44;100796.31;4973487;28;20050;-64
2021/05/07 01:00:52;;;;;;;6.43;2.57;;;;;;;16.85;62.73;100788.06;4978429;28;20050;-65
2021/05/07 01:03:19;;;;;;;4.70;2.80;;;;;;;16.87;62.19;100788.59;4973954;28;20047;-64
2021/05/07 01:05:46;;;;;;;13.00;3.03;;;;;;;16.66;62.50;100765.63;4972066;28;20074;-66
2021/05/07 01:08:14;;;;;;;6.83;2.97;;;;;;;16.76;62.57;100788.00;4976011;28;20042;-64
2021/05/07 01:10:40;;;;;;;6.45;2.88;;;;;;;16.77;62.82;100786.84;4975830;28;20443;-69
2021/05/07 01:13:06;;;;;;;6.90;2.67;;;;;;;16.73;62.67;100794.22;4974579;28;20492;-69
2021/05/07 01:15:42;;;;;;;6.43;2.35;;;;;;;16.69;62.99;100776.28;4973904;28;20133;-69
2021/05/07 01:18:10;;;;;;;4.93;2.43;;;;;;;16.70;62.79;100786.41;4977459;28;20042;-68
2021/05/07 01:20:38;;;;;;;4.93;2.67;;;;;;;16.68;63.04;100787.88;4977889;28;20492;-68
2021/05/07 01:23:07;;;;;;;9.17;2.37;;;;;;;16.64;62.83;100781.19;4975853;28;20104;-69
2021/05/07 01:25:38;;;;;;;7.50;2.05;;;;;;;16.57;63.16;100775.97;4971830;28;20729;-68
2021/05/07 01:28:07;;;;;;;6.67;3.00;;;;;;;16.51;63.31;100771.59;4975220;28;20046;-73
2021/05/07 01:30:36;;;;;;;6.30;2.93;;;;;;;16.43;63.63;100776.00;4979249;28;20132;-72
2021/05/07 01:33:04;;;;;;;6.03;2.73;;;;;;;16.28;63.96;100751.81;4977037;28;20042;-73
2021/05/07 01:35:35;;;;;;;5.10;2.37;;;;;;;15.99;63.92;100723.94;4972528;28;20134;-71
2021/05/07 01:38:12;;;;;;;6.87;3.37;;;;;;;16.23;63.93;100760.34;4980109;28;20057;-71
2021/05/07 01:40:42;;;;;;;5.90;2.57;;;;;;;16.25;63.90;100763.69;4978366;28;20055;-67
2021/05/07 01:43:10;;;;;;;9.80;2.90;;;;;;;16.25;64.02;100758.06;4978457;28;20058;-66
2021/05/07 01:45:38;;;;;;;9.23;2.33;;;;;;;16.19;64.21;100758.47;4978141;28;20775;-68
2021/05/07 01:48:07;;;;;;;7.80;2.50;;;;;;;16.19;64.01;100750.84;4973551;28;20177;-65
2021/05/07 01:50:36;;;;;;;7.57;2.27;;;;;;;16.19;64.05;100752.84;4974436;28;20047;-67
2021/05/07 01:53:04;;;;;;;5.67;2.27;;;;;;;16.14;64.15;100748.16;4974787;28;20189;-69
2021/05/07 01:55:33;;;;;;;7.70;2.53;;;;;;;16.08;64.15;100752.22;4974616;28;20051;-69
2021/05/07 01:58:00;;;;;;;8.57;3.30;;;;;;;15.97;64.08;100739.50;4973988;28;20050;-69
2021/05/07 02:00:28;;;;;;;4.87;2.43;;;;;;;15.91;64.57;100738.75;4973507;28;20416;-67
2021/05/07 02:02:56;;;;;;;5.13;2.50;;;;;;;15.85;65.04;100743.63;4977598;28;20076;-68
2021/05/07 02:05:25;;;;;;;7.63;2.83;;;;;;;15.80;65.22;100754.19;4975082;28;20042;-68
2021/05/07 02:07:51;;;;;;;4.57;2.33;;;;;;;15.77;64.79;100755.63;4976454;28;20043;-67
2021/05/07 02:10:25;;;;;;;4.83;2.77;;;;;;;15.71;65.15;100751.25;4974344;28;20129;-73
2021/05/07 02:12:53;;;;;;;5.77;2.70;;;;;;;15.67;65.38;100744.56;4972038;28;20142;-66
2021/05/07 02:15:21;;;;;;;11.83;3.07;;;;;;;15.56;65.32;100726.19;4975324;28;20477;-68
2021/05/07 02:17:48;;;;;;;7.87;3.00;;;;;;;15.59;65.54;100731.19;4974165;28;20325;-66
2021/05/07 02:20:16;;;;;;;5.57;2.30;;;;;;;15.60;65.77;100738.47;4978493;28;20042;-67
2021/05/07 02:22:44;;;;;;;7.67;3.23;;;;;;;15.58;65.76;100743.56;4976685;28;20447;-72
2021/05/07 02:25:11;;;;;;;5.00;2.90;;;;;;;15.58;65.82;100733.16;4973180;28;20066;-72
2021/05/07 02:27:37;;;;;;;5.50;2.67;;;;;;;15.51;65.73;100721.47;4974899;28;20046;-69
2021/05/07 02:30:07;;;;;;;5.23;2.60;;;;;;;15.50;66.04;100710.53;4976970;28;20380;-67
2021/05/07 02:32:33;;;;;;;11.05;3.80;;;;;;;15.56;66.02;100723.38;4975684;28;20491;-67
2021/05/07 02:34:59;;;;;;;10.00;3.03;;;;;;;15.59;66.14;100728.38;4979926;28;20058;-65
2021/05/07 02:37:26;;;;;;;7.10;3.60;;;;;;;15.59;66.10;100728.38;4978650;28;20141;-69
2021/05/07 02:39:52;;;;;;;6.93;3.90;;;;;;;15.62;66.10;100727.72;4978754;28;20058;-70
2021/05/07 02:42:19;;;;;;;8.00;3.70;;;;;;;15.63;66.15;100723.78;4984953;28;20052;-69
2021/05/07 02:44:47;;;;;;;6.53;2.93;;;;;;;15.63;66.15;100724.63;4977359;28;20053;-68
2021/05/07 02:47:14;;;;;;;9.27;3.50;;;;;;;15.65;66.11;100718.66;4982192;28;20050;-76
2021/05/07 02:49:40;;;;;;;9.00;3.37;;;;;;;15.63;65.98;100723.78;4972090;28;20157;-74
2021/05/07 02:52:07;;;;;;;9.27;3.27;;;;;;;15.68;66.02;100720.88;4972209;28;20478;-72
2021/05/07 02:54:33;;;;;;;5.67;3.53;;;;;;;15.71;65.95;100714.66;4979908;28;20046;-72
2021/05/07 02:57:00;;;;;;;10.97;3.50;;;;;;;15.75;65.87;100720.47;4976819;28;20051;-73
2021/05/07 02:59:27;;;;;;;7.60;3.17;;;;;;;15.81;65.61;100722.88;4974015;28;20045;-72
2021/05/07 03:01:54;;;;;;;9.27;3.60;;;;;;;15.86;65.35;100728.44;4980961;28;20047;-71
2021/05/07 03:04:21;;;;;;;9.50;4.23;;;;;;;15.83;65.41;100717.78;4973741;28;20074;-71
2021/05/07 03:06:48;;;;;;;8.17;3.57;;;;;;;15.87;65.00;100709.56;4975211;28;20042;-75
2021/05/07 03:09:15;;;;;;;7.20;3.50;;;;;;;15.99;64.70;100714.66;4975974;28;20065;-72
2021/05/07 03:11:42;;;;;;;11.90;4.27;;;;;;;16.06;64.50;100724.34;4974722;28;20411;-71
2021/05/07 03:14:10;;;;;;;6.90;3.40;;;;;;;16.06;64.33;100727.16;4975705;28;20074;-72
2021/05/07 03:16:37;;;;;;;5.40;2.97;;;;;;;16.10;64.17;100733.00;4980515;28;20721;-71
2021/05/07 03:19:04;;;;;;;4.33;2.87;;;;;;;16.03;63.78;100715.69;4982515;28;20046;-71
2021/05/07 03:21:32;;;;;;;7.57;3.63;;;;;;;16.04;63.73;100726.66;4976679;28;20603;-70
2021/05/07 03:23:58;;;;;;;6.83;3.40;;;;;;;15.92;63.72;100709.44;4977399;28;20055;-69
2021/05/07 03:26:25;;;;;;;6.53;3.10;;;;;;;16.00;63.81;100719.13;4974992;28;20046;-69
2021/05/07 03:28:52;;;;;;;8.10;4.13;;;;;;;16.06;63.64;100731.97;4975297;28;20421;-70
2021/05/07 03:31:18;;;;;;;9.10;3.27;;;;;;;16.05;63.65;100725.50;4982062;28;20046;-71
2021/05/07 03:33:45;;;;;;;7.00;3.23;;;;;;;15.90;63.38;100708.94;4974398;28;20069;-73
2021/05/07 03:36:12;;;;;;;6.27;3.60;;;;;;;15.97;63.55;100719.78;4981876;28;20197;-73
2021/05/07 03:38:38;;;;;;;5.27;3.07;;;;;;;15.98;63.79;100721.44;4980157;28;20057;-72
2021/05/07 03:41:05;;;;;;;7.80;3.17;;;;;;;15.92;63.71;100711.41;4981333;28;20499;-73
2021/05/07 03:43:32;;;;;;;4.77;2.77;;;;;;;15.84;64.09;100716.63;4981865;28;20042;-74
2021/05/07 03:45:59;;;;;;;5.93;2.70;;;;;;;15.68;64.23;100715.25;4979988;28;20065;-71
2021/05/07 03:48:25;;;;;;;10.70;3.27;;;;;;;15.49;64.85;100708.88;4977619;28;20062;-71
2021/05/07 03:50:57;;;;;;;5.40;2.47;;;;;;;15.38;65.14;100709.03;4977241;28;20050;-73
2021/05/07 03:53:24;;;;;;;7.70;3.13;;;;;;;15.12;65.63;100702.19;4982043;28;20492;-71
2021/05/07 03:55:50;;;;;;;5.80;2.97;;;;;;;15.10;65.99;100718.53;4978686;28;20467;-72
2021/05/07 03:58:17;;;;;;;5.20;2.77;;;;;;;14.98;66.17;100709.75;4979646;28;20058;-76
2021/05/07 04:00:44;;;;;;;7.77;3.67;;;;;;;14.93;66.25;100711.47;4978797;28;20506;-72
2021/05/07 04:03:11;;;;;;;5.57;2.83;;;;;;;14.96;65.83;100710.03;4979450;28;20051;-73
2021/05/07 04:05:37;;;;;;;6.93;3.73;;;;;;;14.88;66.08;100702.31;4980642;28;20050;-75
2021/05/07 04:08:11;;;;;;;6.10;3.30;;;;;;;14.91;65.79;100708.16;4979100;28;20137;-75
2021/05/07 04:10:42;;;;;;;7.10;3.50;;;;;;;14.85;66.17;100705.72;4981568;28;20042;-71
2021/05/07 04:15:54;;;;;;;8.27;3.50;;;;;;;14.88;66.00;100717.19;4980021;28;20050;-72
2021/05/07 04:18:20;;;;;;;7.87;2.87;;;;;;;14.85;66.23;100720.63;4975750;28;20050;-73
2021/05/07 04:20:47;;;;;;;5.97;3.07;;;;;;;14.75;66.46;100715.16;4979222;28;20050;-70
2021/05/07 04:23:16;;;;;;;12.30;4.03;;;;;;;14.76;66.51;100715.97;4977497;28;20046;-69
2021/05/07 04:25:43;;;;;;;4.87;2.53;;;;;;;14.72;66.65;100718.56;4976116;28;20361;-69
2021/05/07 04:28:09;;;;;;;4.67;2.80;;;;;;;14.64;67.07;100719.28;4977760;28;20192;-69
2021/05/07 04:30:35;;;;;;;7.07;3.53;;;;;;;14.52;67.46;100704.81;4975295;28;20065;-70
2021/05/07 04:33:02;;;;;;;6.50;3.00;;;;;;;14.53;67.77;100712.09;4977274;28;20050;-70
2021/05/07 04:35:28;;;;;;;4.87;3.10;;;;;;;14.38;68.04;100713.97;4978663;28;20054;-73
2021/05/07 04:37:54;;;;;;;7.77;3.33;;;;;;;14.38;68.17;100708.34;4981522;28;20057;-75
2021/05/07 04:40:21;;;;;;;3.57;2.00;;;;;;;14.29;68.34;100718.59;4976680;28;20050;-77
2021/05/07 04:42:47;;;;;;;4.37;2.70;;;;;;;14.25;68.70;100716.69;4987732;28;20038;-73
2021/05/07 04:45:14;;;;;;;6.03;3.10;;;;;;;14.19;68.94;100715.94;4973753;28;20057;-72
2021/05/07 04:47:40;;;;;;;3.40;1.80;;;;;;;14.12;69.23;100712.63;4980287;28;20054;-74
2021/05/07 04:50:07;;;;;;;5.50;2.80;;;;;;;13.98;69.83;100719.00;4977753;28;20489;-80
2021/05/07 04:52:34;;;;;;;8.37;3.93;;;;;;;13.97;70.13;100720.13;4980290;28;20130;-70
2021/05/07 04:55:01;;;;;;;6.00;3.67;;;;;;;13.99;69.75;100720.66;4973186;28;20100;-71
2021/05/07 04:57:28;;;;;;;8.43;3.20;;;;;;;14.01;69.96;100725.13;4977402;28;20038;-70
2021/05/07 04:59:57;;;;;;;5.60;2.47;;;;;;;13.92;70.21;100717.38;4975962;28;20039;-73
2021/05/07 05:02:26;;;;;;;5.53;2.53;;;;;;;13.88;70.50;100727.53;4977688;28;20053;-73
2021/05/07 05:04:53;;;;;;;5.95;3.22;;;;;;;13.84;70.68;100726.44;4976073;28;20046;-68
2021/05/07 05:07:19;;;;;;;6.23;2.67;;;;;;;13.86;70.42;100723.34;4980897;28;20068;-71
2021/05/07 05:09:46;;;;;;;5.97;2.93;;;;;;;13.89;70.37;100723.59;4976278;28;20054;-73
2021/05/07 05:12:12;;;;;;;5.70;2.77;;;;;;;13.98;69.94;100726.56;4982734;28;20598;-78
2021/05/07 05:14:38;;;;;;;7.77;3.03;;;;;;;14.05;69.66;100734.63;4979082;28;20171;-71
2021/05/07 05:17:04;;;;;;;7.13;3.43;;;;;;;14.15;69.46;100737.31;4966684;28;20058;-64
2021/05/07 05:19:31;;;;;;;7.60;3.17;;;;;;;14.19;69.32;100738.41;4981299;28;20075;-67
2021/05/07 05:21:57;;;;;;;7.00;4.70;;;;;;;14.23;69.18;100731.88;4982971;28;20411;-69
2021/05/07 05:24:24;;;;;;;5.43;3.37;;;;;;;14.26;69.06;100724.81;4979683;28;20511;-70
2021/05/07 05:26:50;;;;;;;7.63;3.83;;;;;;;14.34;68.79;100729.75;4974686;28;20055;-71
2021/05/07 05:29:17;;;;;;;6.57;3.00;;;;;;;14.22;68.77;100712.50;4979515;28;20078;-69
2021/05/07 05:31:43;;;;;;;4.97;2.60;;;;;;;14.34;68.90;100726.13;4977390;28;20065;-68
2021/05/07 05:34:10;;;;;;;7.37;3.03;;;;;;;14.36;68.75;100730.31;4981455;28;20528;-70
2021/05/07 05:36:37;;;;;;;5.67;3.47;;;;;;;14.23;69.17;100731.03;4979532;28;20423;-68
2021/05/07 05:39:04;;;;;;;8.47;3.07;;;;;;;14.27;69.49;100729.28;4976401;28;20403;-66
2021/05/07 05:41:30;;;;;;;9.20;3.43;;;;;;;14.27;69.32;100725.66;4978163;28;20062;-69
2021/05/07 05:43:57;;;;;;;6.53;3.33;;;;;;;14.37;69.42;100734.78;4976496;28;20058;-63
2021/05/07 05:46:23;;;;;;;6.03;3.03;;;;;;;14.38;69.50;100744.88;4980547;28;20046;-66
2021/05/07 05:48:49;;;;;;;9.70;3.73;;;;;;;14.50;69.20;100746.44;4979639;28;20181;-66
2021/05/07 05:51:15;;;;;;;9.33;3.57;;;;;;;14.64;68.79;100748.22;4981111;28;20042;-66
2021/05/07 05:53:44;;;;;;;7.57;3.80;;;;;;;14.75;68.49;100754.50;4980279;28;20070;-68
2021/05/07 05:56:12;;;;;;;9.67;3.70;;;;;;;14.89;68.12;100749.78;4979176;28;20495;-66
2021/05/07 05:58:39;;;;;;;6.43;3.30;;;;;;;14.77;68.48;100741.00;4972904;28;20046;-68
2021/05/07 06:01:05;;;;;;;4.40;2.57;;;;;;;14.75;68.56;100746.06;4979478;28;20157;-68
2021/05/07 06:03:31;;;;;;;7.70;3.13;;;;;;;14.74;68.76;100749.22;4975378;28;20046;-67
2021/05/07 06:05:58;;;;;;;5.63;3.23;;;;;;;14.68;68.90;100749.25;4976206;28;20054;-67
2021/05/07 06:08:24;;;;;;;5.63;3.07;;;;;;;14.78;68.71;100753.06;4976620;28;20415;-67
2021/05/07 06:10:50;;;;;;;7.47;3.50;;;;;;;14.98;68.22;100760.38;4984524;28;20043;-67
2021/05/07 06:13:16;;;;;;;5.70;3.10;;;;;;;15.19;67.67;100758.91;4982231;28;20079;-66
2021/05/07 06:15:44;;;;;;;6.77;3.97;;;;;;;15.35;67.42;100763.13;4977318;28;20129;-67
2021/05/07 06:18:10;;;;;;;6.13;3.53;;;;;;;15.38;67.37;100751.25;4976387;28;20046;-69
2021/05/07 06:20:37;;;;;;;9.17;3.63;;;;;;;15.02;67.51;100708.81;4977569;28;20401;-67
2021/05/07 06:23:03;;;;;;;9.83;3.17;;;;;;;15.36;67.70;100758.31;4978345;28;20058;-68
2021/05/07 06:25:30;;;;;;;5.43;2.70;;;;;;;15.10;68.05;100753.13;4980223;28;20046;-66
2021/05/07 06:27:56;;;;;;;8.13;3.70;;;;;;;15.16;68.09;100767.94;4972701;28;20101;-65
2021/05/07 06:30:23;;;;;;;8.70;3.83;;;;;;;15.25;67.75;100766.13;4979465;28;20048;-66
2021/05/07 06:32:49;;;;;;;5.13;3.50;;;;;;;15.34;67.50;100767.06;4974697;28;20046;-67
2021/05/07 06:35:16;;;;;;;8.67;3.60;;;;;;;15.37;67.38;100771.25;4975778;28;20392;-67
2021/05/07 06:37:43;;;;;;;6.50;3.27;;;;;;;15.33;67.26;100765.41;4976054;28;20109;-67
2021/05/07 06:40:10;;;;;;;7.33;4.03;;;;;;;15.33;67.44;100775.81;4974162;28;20054;-67
2021/05/07 06:42:38;;;;;;;9.97;4.03;;;;;;;15.35;67.42;100770.72;4976997;28;20042;-65
2021/05/07 06:45:09;;;;;;;7.33;3.63;;;;;;;15.48;67.29;100771.91;4975676;28;20150;-66
2021/05/07 06:47:36;;;;;;;7.93;3.37;;;;;;;15.60;67.04;100775.06;4980988;28;20038;-67
2021/05/07 06:50:03;;;;;;;5.67;3.40;;;;;;;15.66;66.90;100776.69;4983227;28;20525;-67
2021/05/07 06:52:31;;;;;;;8.57;3.97;;;;;;;15.76;66.75;100782.13;4983450;28;20406;-65
2021/05/07 06:54:57;;;;;;;6.60;3.77;;;;;;;15.84;66.36;100778.59;4979861;28;20511;-67
2021/05/07 06:57:24;;;;;;;11.60;4.13;;;;;;;15.99;66.37;100771.81;4978024;28;20137;-67
2021/05/07 06:59:50;;;;;;;5.40;3.37;;;;;;;16.56;65.80;100788.41;4980884;28;20049;-66
2021/05/07 07:02:18;;;;;;;6.67;4.27;;;;;;;17.00;65.26;100782.09;4976539;28;20062;-65
2021/05/07 07:04:46;;;;;;;5.57;3.50;;;;;;;17.29;64.42;100787.28;4979592;28;20173;-67
2021/05/07 07:07:13;;;;;;;7.90;4.38;;;;;;;17.69;64.13;100784.59;4979847;28;20495;-67
2021/05/07 07:09:40;;;;;;;9.27;3.90;;;;;;;17.87;63.61;100785.53;4983612;28;20057;-67
2021/05/07 07:12:06;;;;;;;5.85;3.63;;;;;;;17.96;62.89;100791.25;4974145;28;20510;-66
2021/05/07 07:14:41;;;;;;;10.48;3.90;;;;;;;18.19;62.78;100780.72;4978404;28;20046;-68
2021/05/07 07:17:07;;;;;;;5.53;3.33;;;;;;;18.48;61.88;100788.63;4983411;28;20054;-68
2021/05/07 07:19:34;;;;;;;9.18;3.60;;;;;;;18.87;61.30;100799.09;4982548;28;20051;-67
2021/05/07 07:22:03;;;;;;;9.00;4.30;;;;;;;19.25;60.47;100801.28;4958935;28;20128;-67
2021/05/07 07:24:30;;;;;;;6.15;3.38;;;;;;;19.31;60.26;100801.91;4975729;28;20436;-67
2021/05/07 07:26:57;;;;;;;5.47;2.70;;;;;;;19.24;60.25;100807.25;4977852;28;20152;-67
2021/05/07 07:29:24;;;;;;;6.50;3.97;;;;;;;19.29;60.13;100809.94;4982237;28;20042;-67
2021/05/07 07:31:51;;;;;;;7.40;3.65;;;;;;;19.27;59.62;100784.75;4978093;28;20054;-68
2021/05/07 07:34:19;;;;;;;7.45;3.63;;;;;;;19.36;59.55;100801.75;4981543;28;20057;-67
2021/05/07 07:36:47;;;;;;;6.95;3.17;;;;;;;19.49;59.09;100803.59;4979211;28;20069;-67
2021/05/07 07:39:14;;;;;;;4.50;3.05;;;;;;;19.72;58.83;100809.06;4976579;28;20047;-66
2021/05/07 07:41:41;;;;;;;8.73;3.40;;;;;;;19.94;58.36;100811.69;4973009;28;20054;-67
2021/05/07 07:44:07;;;;;;;6.43;4.18;;;;;;;20.05;58.32;100806.50;4975813;28;20057;-66
2021/05/07 07:46:34;;;;;;;6.43;3.92;;;;;;;20.26;57.55;100801.72;4980423;28;20093;-67
2021/05/07 07:49:01;;;;;;;6.93;3.45;;;;;;;20.48;57.29;100811.16;4980227;28;20074;-67
2021/05/07 07:51:33;;;;;;;5.95;3.42;;;;;;;20.57;56.46;100809.97;4977377;28;20100;-68
2021/05/07 07:54:02;;;;;;;7.15;4.00;;;;;;;20.54;56.13;100801.31;4974074;28;20518;-67
2021/05/07 07:56:29;;;;;;;8.98;3.92;;;;;;;20.76;56.02;100806.69;4976752;28;20074;-68
2021/05/07 07:58:55;;;;;;;8.57;5.70;;;;;;;20.96;55.42;100796.53;4980224;28;20049;-68
2021/05/07 08:01:22;;;;;;;13.93;6.50;;;;;;;20.96;54.90;100802.22;4978507;28;20402;-68
2021/05/07 08:03:49;;;;;;;7.30;4.70;;;;;;;21.20;54.63;100807.22;4977019;28;20070;-68
2021/05/07 08:06:16;;;;;;;8.15;4.78;;;;;;;21.14;54.13;100797.25;4978898;28;20152;-67
2021/05/07 08:08:42;;;;;;;6.35;3.58;;;;;;;21.12;53.90;100807.28;4979323;28;20137;-68
2021/05/07 08:11:09;;;;;;;8.27;3.90;;;;;;;21.21;53.46;100800.34;4979721;28;20194;-68
2021/05/07 08:13:35;;;;;;;10.73;3.67;;;;;;;21.42;53.00;100808.06;4982344;28;20506;-68
2021/05/07 08:16:02;;;;;;;6.72;3.60;;;;;;;21.42;52.66;100806.03;4983493;28;20507;-68
2021/05/07 08:18:28;;;;;;;3.55;2.80;;;;;;;21.48;52.70;100807.50;4980385;28;20057;-67
2021/05/07 08:20:55;;;;;;;11.25;4.00;;;;;;;21.60;52.64;100805.88;4975305;28;20050;-68
2021/05/07 08:23:22;;;;;;;5.07;3.13;;;;;;;21.32;52.30;100751.63;4979102;28;20046;-66
2021/05/07 08:25:48;;;;;;;7.88;4.20;;;;;;;22.11;51.85;100807.34;4979984;28;20403;-69
2021/05/07 08:28:14;;;;;;;9.57;4.40;;;;;;;22.35;51.72;100815.09;4980333;28;20568;-68
2021/05/07 08:30:41;;;;;;;7.60;3.40;;;;;;;22.26;51.41;100811.56;4979526;28;20084;-67
2021/05/07 08:33:09;;;;;;;6.07;4.10;;;;;;;22.04;51.14;100812.78;4982040;28;20053;-68
2021/05/07 08:35:35;;;;;;;6.80;3.80;;;;;;;21.81;51.09;100820.88;4977335;28;20046;-68
2021/05/07 08:38:05;;;;;;;7.70;3.45;;;;;;;21.76;51.39;100812.59;4984183;28;20415;-68
2021/05/07 08:40:31;;;;;;;8.13;4.43;;;;;;;21.64;51.25;100801.16;4983418;28;20045;-68
2021/05/07 08:42:59;;;;;;;5.57;4.20;;;;;;;21.73;51.53;100813.28;4982505;28;20055;-68
2021/05/07 08:45:27;;;;;;;10.43;3.40;;;;;;;21.61;51.54;100807.56;4973789;28;20515;-67
2021/05/07 08:48:13;;;;;;;6.53;3.63;;;;;;;21.64;51.58;100804.00;4973179;28;20522;-68
2021/05/07 08:50:52;;;;;;;11.73;4.18;;;;;;;22.23;51.00;100803.72;4977996;28;20055;-67
2021/05/07 08:53:19;;;;;;;6.53;4.18;;;;;;;22.46;50.47;100802.09;4981071;28;20529;-66
2021/05/07 08:55:46;;;;;;;7.18;3.60;;;;;;;22.90;50.00;100804.28;4982832;28;20054;-67
2021/05/07 08:58:14;;;;;;;4.65;3.05;;;;;;;23.62;48.79;100785.38;4981743;28;20672;-66
2021/05/07 09:00:41;;;;;;;5.68;2.33;;;;;;;23.84;48.40;100803.94;4980278;28;20061;-67
2021/05/07 09:03:13;;;;;;;8.07;2.90;;;;;;;24.21;47.86;100803.72;4979803;28;20184;-67
2021/05/07 09:05:41;;;;;;;8.73;3.28;;;;;;;24.40;47.23;100807.84;4976459;28;20436;-67
2021/05/07 09:08:08;;;;;;;4.10;2.20;;;;;;;25.01;46.27;100804.47;4976660;28;20050;-68
2021/05/07 09:10:40;;;;;;;5.20;2.70;;;;;;;25.49;45.62;100805.16;4980147;28;20054;-67
2021/05/07 09:13:09;;;;;;;6.78;3.10;;;;;;;25.36;45.13;100786.50;4980903;28;20042;-66
2021/05/07 09:15:45;;;;;;;6.20;2.70;;;;;;;25.33;45.08;100799.50;4978260;28;20066;-66
2021/05/07 09:18:13;;;;;;;5.78;2.85;;;;;;;25.57;44.39;100775.50;4981358;28;20046;-68
2021/05/07 09:20:42;;;;;;;;;;;;;;;25.83;46.30;100794.03;4976727;28;20423;-68
2021/05/07 09:23:12;;;;;;;5.75;2.35;;;;;;;26.46;44.09;100787.81;4973586;28;19922;-66
2021/05/07 09:25:46;;;;;;;2.63;1.77;;;;;;;26.84;42.99;100797.47;4978070;28;20562;-67
2021/05/07 09:28:15;;;;;;;4.03;2.00;;;;;;;27.15;41.98;100794.28;4974947;28;20050;-67
2021/05/07 09:30:42;;;;;;;10.85;2.67;;;;;;;27.07;41.50;100798.22;4981547;28;20100;-67
2021/05/07 09:33:14;;;;;;;4.68;2.15;;;;;;;26.83;41.84;100792.94;4980853;28;20038;-66
2021/05/07 09:35:42;;;;;;;4.47;2.30;;;;;;;26.54;41.58;100792.50;4981706;28;20046;-67
2021/05/07 09:38:12;;;;;;;6.13;3.25;;;;;;;26.41;41.46;100808.19;4979500;28;20053;-66
2021/05/07 09:40:40;;;;;;;3.83;1.95;;;;;;;26.33;41.22;100801.53;4978373;28;20050;-68
2021/05/07 09:43:12;;;;;;;4.90;2.47;;;;;;;26.18;41.65;100808.19;4979299;28;20060;-67
2021/05/07 09:45:41;;;;;;;6.00;3.45;;;;;;;26.46;41.52;100799.25;4974040;28;20090;-68
2021/05/07 09:48:18;;;;;;;4.38;2.88;;;;;;;26.86;41.01;100795.84;4976950;28;20046;-67
2021/05/07 09:50:46;;;;;;;9.00;2.70;;;;;;;27.44;40.08;100797.53;4974982;28;20467;-68
2021/05/07 09:53:21;;;;;;;7.68;2.70;;;;;;;27.40;40.03;100793.78;4976848;28;20423;-68
2021/05/07 09:55:59;;;;;;;7.95;2.80;;;;;;;27.07;40.20;100800.25;4975673;28;20254;-67
2021/05/07 09:58:28;;;;;;;4.03;2.30;;;;;;;27.06;39.61;100798.63;4977127;28;20042;-67
2021/05/07 10:00:58;;;;;;;4.50;2.22;;;;;;;26.74;39.48;100809.59;4981188;28;20043;-68
2021/05/07 10:03:25;;;;;;;6.03;2.63;;;;;;;26.42;39.42;100810.66;4977909;28;20057;-67
2021/05/07 10:05:51;;;;;;;4.00;2.13;;;;;;;26.12;39.81;100816.28;4976444;28;20054;-68
2021/05/07 10:08:18;;;;;;;6.07;2.22;;;;;;;25.82;39.83;100809.56;4983230;28;20046;-68
2021/05/07 10:10:47;;;;;;;4.22;2.17;;;;;;;25.38;40.03;100793.50;4978636;28;20510;-68
2021/05/07 10:13:25;;;;;;;4.15;2.03;;;;;;;25.17;40.53;100793.88;4976026;28;20055;-68
2021/05/07 10:16:02;;;;;;;6.97;3.13;;;;;;;24.94;41.04;100801.47;4977802;28;20058;-68
2021/05/07 10:18:31;;;;;;;7.47;2.20;;;;;;;24.55;41.25;100781.38;4976187;28;20049;-68
2021/05/07 10:21:00;;;;;;;4.80;2.50;;;;;;;24.63;41.52;100802.34;4975916;28;20142;-67
2021/05/07 10:23:27;;;;;;;5.10;2.80;;;;;;;25.24;41.58;100816.06;4981675;28;20050;-67
2021/05/07 10:26:02;;;;;;;6.50;2.90;;;;;;;26.15;40.58;100806.94;4982656;28;20050;-67
2021/05/07 10:28:43;;;;;;;9.68;4.28;;;;;;;26.92;39.74;100793.50;4963710;28;20038;-67
2021/05/07 10:31:12;;;;;;;8.07;4.90;;;;;;;27.42;39.15;100799.97;4976326;28;20061;-67
2021/05/07 10:33:43;;;;;;;7.00;3.42;;;;;;;27.19;39.42;100790.63;4980719;28;20061;-67
2021/05/07 10:36:10;;;;;;;6.60;2.95;;;;;;;26.86;39.72;100798.72;4980681;28;20058;-67
2021/05/07 10:38:47;;;;;;;7.47;3.10;;;;;;;26.44;40.39;100801.69;4980614;28;20133;-67
2021/05/07 10:41:14;;;;;;;6.57;2.47;;;;;;;26.29;40.58;100802.66;4963779;28;20050;-65
2021/05/07 10:43:45;;;;;;;7.80;2.90;;;;;;;26.11;40.67;100799.47;4982051;28;20042;-66
2021/05/07 10:46:25;;;;;;;7.00;3.08;;;;;;;25.54;41.56;100793.44;4981809;28;20050;-67
2021/05/07 10:48:57;;;;;;;8.57;3.15;;;;;;;25.48;41.45;100794.94;4975683;28;20138;-66
2021/05/07 10:51:27;;;;;;;5.00;2.97;;;;;;;25.70;42.09;100802.72;4978844;28;20050;-67
2021/05/07 10:54:10;;;;;;;6.47;3.28;;;;;;;26.53;41.40;100793.72;4981200;28;20781;-67
2021/05/07 10:56:38;;;;;;;5.93;3.05;;;;;;;27.17;40.48;100786.09;4982322;28;20057;-67
2021/05/07 10:59:12;;;;;;;6.28;3.35;;;;;;;27.57;40.05;100790.31;4982664;28;20051;-66
2021/05/07 11:01:55;;;;;;;7.35;3.35;;;;;;;28.08;39.39;100795.44;4982781;28;20630;-67
2021/05/07 11:04:21;;;;;;;;;;;;;;;28.28;40.57;100795.22;4982017;28;20046;-67
2021/05/07 11:07:02;;;;;;;4.85;2.85;;;;;;;28.63;38.81;100791.84;4979465;28;19929;-66
2021/05/07 11:09:29;;;;;;;6.53;2.92;;;;;;;29.11;37.11;100788.09;4985364;28;20039;-66
2021/05/07 11:12:03;;;;;;;4.80;3.00;;;;;;;28.48;37.74;100785.19;4978460;28;20439;-67
2021/05/07 11:14:32;;;;;;;5.30;2.97;;;;;;;28.00;38.09;100799.47;4981494;28;20423;-67
2021/05/07 11:16:59;;;;;;;4.72;2.58;;;;;;;27.44;38.31;100803.25;4981083;28;20050;-66
2021/05/07 11:19:29;;;;;;;;;;;;;;;26.83;40.09;100795.81;4985321;28;20505;-66
2021/05/07 11:21:57;;;;;;;7.93;3.15;;;;;;;26.88;39.29;100786.88;4977353;28;19930;-66
2021/05/07 11:24:29;;;;;;;9.13;3.17;;;;;;;26.95;38.99;100787.00;4979414;28;20064;-66
2021/05/07 11:26:57;;;;;;;7.65;2.83;;;;;;;27.03;39.54;100803.06;4984221;28;20077;-66
2021/05/07 11:29:34;;;;;;;4.90;2.10;;;;;;;26.98;39.29;100768.22;4977597;28;20053;-66
2021/05/07 11:32:15;;;;;;;3.67;2.45;;;;;;;26.59;39.33;100745.50;4981119;28;22401;-66